createdAt,value
2022-11-27T00:00:47.561Z,99.99
2022-11-27T00:01:47.532Z,99.99
2022-11-27T00:02:47.628Z,99.99
2022-11-27T00:03:47.511Z,99.99
2022-11-27T00:04:47.384Z,99.99
2022-11-27T00:05:47.343Z,99.99
2022-11-27T00:06:47.306Z,99.99
2022-11-27T00:07:47.316Z,99.99
2022-11-27T00:08:47.209Z,99.99
2022-11-27T00:09:47.165Z,99.99
2022-11-27T00:10:47.120Z,99.99
2022-11-27T00:11:47.083Z,99.99
2022-11-27T00:12:47.114Z,99.99
2022-11-27T00:13:46.993Z,99.99
2022-11-27T00:14:46.955Z,99.99
2022-11-27T00:15:46.963Z,99.99
2022-11-27T00:16:46.856Z,99.99
2022-11-27T00:17:46.814Z,99.99
2022-11-27T00:18:46.768Z,99.99
2022-11-27T00:19:46.738Z,99.99
2022-11-27T00:20:46.680Z,99.99
2022-11-27T00:21:46.636Z,99.99
2022-11-27T00:22:46.589Z,99.99
2022-11-27T00:23:46.548Z,99.99
2022-11-27T00:24:46.513Z,99.99
2022-11-27T00:25:46.464Z,99.99
2022-11-27T00:26:46.415Z,99.99
2022-11-27T00:27:46.373Z,99.99
2022-11-27T00:28:46.329Z,99.99
2022-11-27T00:29:46.314Z,99.99
2022-11-27T00:30:46.260Z,99.99
2022-11-27T00:31:46.255Z,99.99
2022-11-27T00:32:46.151Z,99.99
2022-11-27T00:33:46.107Z,99.99
2022-11-27T00:34:46.064Z,99.99
2022-11-27T00:35:46.033Z,99.99
2022-11-27T00:36:48.248Z,99.99
2022-11-27T00:37:45.933Z,99.99
2022-11-27T00:38:45.886Z,99.99
2022-11-27T00:39:45.866Z,99.99
2022-11-27T00:40:45.799Z,99.99
2022-11-27T00:41:45.756Z,99.99
2022-11-27T00:42:45.721Z,99.99
2022-11-27T00:43:45.784Z,99.82
2022-11-27T00:44:45.623Z,99.99
2022-11-27T00:45:45.580Z,99.99
2022-11-27T00:46:45.694Z,99.99
2022-11-27T00:47:45.508Z,99.98
2022-11-27T00:48:45.464Z,99.77
2022-11-27T00:49:45.403Z,99.99
2022-11-27T00:50:45.357Z,99.98
2022-11-27T00:51:45.315Z,99.99
2022-11-27T00:52:45.268Z,99.99
2022-11-27T00:53:45.239Z,99.99
2022-11-27T00:54:45.181Z,99.99
2022-11-27T00:55:45.141Z,99.99
2022-11-27T00:56:45.094Z,99.99
2022-11-27T00:57:45.054Z,99.99
2022-11-27T00:58:45.006Z,99.99
2022-11-27T00:59:44.972Z,99.99
2022-11-27T01:00:44.916Z,99.87
2022-11-27T01:01:44.962Z,99.99
2022-11-27T01:02:44.865Z,99.99
2022-11-27T01:03:44.785Z,99.99
2022-11-27T01:04:44.757Z,99.99
2022-11-27T01:05:44.697Z,99.98
2022-11-27T01:06:44.651Z,99.99
2022-11-27T01:07:44.635Z,99.99
2022-11-27T01:08:44.568Z,99.99
2022-11-27T01:09:44.521Z,99.99
2022-11-27T01:10:44.484Z,99.99
2022-11-27T01:11:44.445Z,99.99
2022-11-27T01:12:44.390Z,99.99
2022-11-27T01:13:44.346Z,99.99
2022-11-27T01:14:44.300Z,99.99
2022-11-27T01:15:44.299Z,99.99
2022-11-27T01:16:44.266Z,99.99
2022-11-27T01:17:44.171Z,99.99
2022-11-27T01:18:44.125Z,99.99
2022-11-27T01:19:44.083Z,99.99
2022-11-27T01:20:44.033Z,99.98
2022-11-27T01:21:52.698Z,99.99
2022-11-27T01:22:43.948Z,99.99
2022-11-27T01:23:43.903Z,99.99
2022-11-27T01:24:43.859Z,99.99
2022-11-27T01:25:43.817Z,99.99
2022-11-27T01:26:43.773Z,99.99
2022-11-27T01:27:43.738Z,99.87
2022-11-27T01:28:43.685Z,99.87
2022-11-27T01:29:43.638Z,99.98
2022-11-27T01:30:43.594Z,99.99
2022-11-27T01:31:43.549Z,99.66
2022-11-27T01:32:43.552Z,99.35
2022-11-27T01:33:43.475Z,99.46
2022-11-27T01:34:43.422Z,99.99
2022-11-27T01:35:43.374Z,99.99
2022-11-27T01:36:43.330Z,99.87
2022-11-27T01:37:43.281Z,99.99
2022-11-27T01:38:43.239Z,99.99
2022-11-27T01:39:43.206Z,99.98
2022-11-27T01:40:43.160Z,99.99
2022-11-27T01:41:43.109Z,99.99
2022-11-27T01:42:43.066Z,99.99
2022-11-27T01:43:43.027Z,99.99
2022-11-27T01:44:42.986Z,99.87
2022-11-27T01:45:42.930Z,99.99
2022-11-27T01:46:42.986Z,99.99
2022-11-27T01:47:42.844Z,99.87
2022-11-27T01:48:42.802Z,99.99
2022-11-27T01:49:42.773Z,99.77
2022-11-27T01:50:42.712Z,99.87
2022-11-27T01:51:42.666Z,99.99
2022-11-27T01:52:42.625Z,99.46
2022-11-27T01:53:42.575Z,99.35
2022-11-27T01:54:42.852Z,99.05
2022-11-27T01:55:42.496Z,99.82
2022-11-27T01:56:42.447Z,99.51
2022-11-27T01:57:42.406Z,99.05
2022-11-27T01:58:42.358Z,99.46
2022-11-27T01:59:42.315Z,98.84
2022-11-27T02:00:42.284Z,99.92
2022-11-27T02:01:42.307Z,99.71
2022-11-27T02:02:42.264Z,99.71
2022-11-27T02:03:42.136Z,99.19
2022-11-27T02:04:42.375Z,99.09
2022-11-27T02:05:42.057Z,99.51
2022-11-27T02:06:42.004Z,99.61
2022-11-27T02:07:42.015Z,99.71
2022-11-27T02:08:41.917Z,99.35
2022-11-27T02:09:41.869Z,99.35
2022-11-27T02:10:41.827Z,99.40
2022-11-27T02:11:41.780Z,99.51
2022-11-27T02:12:41.745Z,99.99
2022-11-27T02:13:41.705Z,99.09
2022-11-27T02:14:42.059Z,99.71
2022-11-27T02:15:41.641Z,99.99
2022-11-27T02:16:41.633Z,99.30
2022-11-27T02:17:41.526Z,99.82
2022-11-27T02:18:41.494Z,99.51
2022-11-27T02:19:41.428Z,99.35
2022-11-27T02:20:41.385Z,99.15
2022-11-27T02:21:41.344Z,99.15
2022-11-27T02:22:41.295Z,98.88
2022-11-27T02:23:41.261Z,99.05
2022-11-27T02:24:41.437Z,99.09
2022-11-27T02:25:41.161Z,99.30
2022-11-27T02:26:41.130Z,98.99
2022-11-27T02:27:41.073Z,99.19
2022-11-27T02:28:41.046Z,98.99
2022-11-27T02:29:40.986Z,98.99
2022-11-27T02:30:40.943Z,99.09
2022-11-27T02:31:40.930Z,98.99
2022-11-27T02:32:40.871Z,99.09
2022-11-27T02:33:40.807Z,98.99
2022-11-27T02:34:41.085Z,98.99
2022-11-27T02:35:40.720Z,99.40
2022-11-27T02:36:40.679Z,99.86
2022-11-27T02:37:40.638Z,99.40
2022-11-27T02:38:40.589Z,99.51
2022-11-27T02:39:40.551Z,99.14
2022-11-27T02:40:40.516Z,98.78
2022-11-27T02:41:40.456Z,99.30
2022-11-27T02:42:40.495Z,99.51
2022-11-27T02:43:40.370Z,99.96
2022-11-27T02:44:40.387Z,99.86
2022-11-27T02:45:40.278Z,99.96
2022-11-27T02:46:40.302Z,99.96
2022-11-27T02:47:40.188Z,99.99
2022-11-27T02:48:40.149Z,99.99
2022-11-27T02:49:40.106Z,99.76
2022-11-27T02:50:40.067Z,99.99
2022-11-27T02:51:40.012Z,99.99
2022-11-27T02:52:39.972Z,99.99
2022-11-27T02:53:39.922Z,99.99
2022-11-27T02:54:40.082Z,99.99
2022-11-27T02:55:39.847Z,99.99
2022-11-27T02:56:39.796Z,99.99
2022-11-27T02:57:39.743Z,99.99
2022-11-27T02:58:39.781Z,99.96
2022-11-27T02:59:39.659Z,99.99
2022-11-27T03:00:39.633Z,99.55
2022-11-27T03:01:39.635Z,99.99
2022-11-27T03:02:39.572Z,99.99
2022-11-27T03:03:39.482Z,99.99
2022-11-27T03:04:39.711Z,99.99
2022-11-27T03:05:39.404Z,99.99
2022-11-27T03:06:39.349Z,99.99
2022-11-27T03:07:39.355Z,99.99
2022-11-27T03:08:39.271Z,99.99
2022-11-27T03:09:39.218Z,99.99
2022-11-27T03:10:39.710Z,99.80
2022-11-27T03:11:39.125Z,99.99
2022-11-27T03:12:39.084Z,99.99
2022-11-27T03:13:39.048Z,99.99
2022-11-27T03:14:39.405Z,99.99
2022-11-27T03:15:38.996Z,99.91
2022-11-27T03:16:38.908Z,99.99
2022-11-27T03:17:38.858Z,99.99
2022-11-27T03:18:38.831Z,99.99
2022-11-27T03:19:38.769Z,99.99
2022-11-27T03:20:38.731Z,99.99
2022-11-27T03:21:38.681Z,99.99
2022-11-27T03:22:38.637Z,99.99
2022-11-27T03:23:38.605Z,99.91
2022-11-27T03:24:38.880Z,99.44
2022-11-27T03:25:38.501Z,99.91
2022-11-27T03:26:38.460Z,99.99
2022-11-27T03:27:38.411Z,99.99
2022-11-27T03:28:38.371Z,99.99
2022-11-27T03:29:38.338Z,99.99
2022-11-27T03:30:38.364Z,99.99
2022-11-27T03:31:38.305Z,99.99
2022-11-27T03:32:38.197Z,99.99
2022-11-27T03:33:38.144Z,99.99
2022-11-27T03:34:38.306Z,99.70
2022-11-27T03:35:38.056Z,99.99
2022-11-27T03:36:38.020Z,99.99
2022-11-27T03:37:37.967Z,99.99
2022-11-27T03:38:37.926Z,99.99
2022-11-27T03:39:37.890Z,99.99
2022-11-27T03:40:37.855Z,99.99
2022-11-27T03:41:37.790Z,99.99
2022-11-27T03:42:37.749Z,99.99
2022-11-27T03:43:37.706Z,99.99
2022-11-27T03:44:37.750Z,99.99
2022-11-27T03:45:37.611Z,99.99
2022-11-27T03:46:37.784Z,99.99
2022-11-27T03:47:37.551Z,99.91
2022-11-27T03:48:37.481Z,99.99
2022-11-27T03:49:37.433Z,99.99
2022-11-27T03:50:37.395Z,99.60
2022-11-27T03:51:37.346Z,99.99
2022-11-27T03:52:37.315Z,99.86
2022-11-27T03:53:37.256Z,99.70
2022-11-27T03:54:37.431Z,99.80
2022-11-27T03:55:37.185Z,99.60
2022-11-27T03:56:37.128Z,99.99
2022-11-27T03:57:37.079Z,99.99
2022-11-27T03:58:37.037Z,99.80
2022-11-27T03:59:36.989Z,99.99
2022-11-27T04:00:36.946Z,99.70
2022-11-27T04:01:36.976Z,99.99
2022-11-27T04:02:36.939Z,99.70
2022-11-27T04:03:36.914Z,99.70
2022-11-27T04:04:36.773Z,99.55
2022-11-27T04:05:36.724Z,99.04
2022-11-27T04:06:36.697Z,99.65
2022-11-27T04:07:36.728Z,99.24
2022-11-27T04:08:36.593Z,99.04
2022-11-27T04:09:36.545Z,99.39
2022-11-27T04:10:36.505Z,99.24
2022-11-27T04:11:36.508Z,99.55
2022-11-27T04:12:36.416Z,99.70
2022-11-27T04:13:36.369Z,99.44
2022-11-27T04:14:36.327Z,99.65
2022-11-27T04:15:36.281Z,99.65
2022-11-27T04:16:36.280Z,99.60
2022-11-27T04:17:36.204Z,99.29
2022-11-27T04:18:36.229Z,99.86
2022-11-27T04:19:36.114Z,99.91
2022-11-27T04:20:36.071Z,99.39
2022-11-27T04:21:36.012Z,99.34
2022-11-27T04:22:35.970Z,99.55
2022-11-27T04:23:36.249Z,99.49
2022-11-27T04:24:35.895Z,99.14
2022-11-27T04:25:35.839Z,99.86
2022-11-27T04:26:35.793Z,98.41
2022-11-27T04:27:35.747Z,98.52
2022-11-27T04:28:35.719Z,98.83
2022-11-27T04:29:35.658Z,98.93
2022-11-27T04:30:35.618Z,98.52
2022-11-27T04:31:35.618Z,98.72
2022-11-27T04:32:35.535Z,98.83
2022-11-27T04:33:35.485Z,98.83
2022-11-27T04:34:35.531Z,98.72
2022-11-27T04:35:35.396Z,98.72
2022-11-27T04:36:39.179Z,98.41
2022-11-27T04:37:35.310Z,98.10
2022-11-27T04:38:35.266Z,98.62
2022-11-27T04:39:35.219Z,99.14
2022-11-27T04:40:35.198Z,98.72
2022-11-27T04:41:35.129Z,98.93
2022-11-27T04:42:36.156Z,99.04
2022-11-27T04:43:35.040Z,97.69
2022-11-27T04:44:34.998Z,98.31
2022-11-27T04:45:34.962Z,99.34
2022-11-27T04:46:34.944Z,97.89
2022-11-27T04:47:34.862Z,97.69
2022-11-27T04:48:34.826Z,97.49
2022-11-27T04:49:34.770Z,97.75
2022-11-27T04:50:34.813Z,97.54
2022-11-27T04:51:34.695Z,97.17
2022-11-27T04:52:34.645Z,97.79
2022-11-27T04:53:34.731Z,98.10
2022-11-27T04:54:34.556Z,97.59
2022-11-27T04:55:34.507Z,97.75
2022-11-27T04:56:35.237Z,98.06
2022-11-27T04:57:35.237Z,98.57
2022-11-27T04:58:34.384Z,98.16
2022-11-27T04:59:34.332Z,97.75
2022-11-27T05:00:34.341Z,97.44
2022-11-27T05:01:34.241Z,98.31
2022-11-27T05:02:34.235Z,97.28
2022-11-27T05:03:34.163Z,98.41
2022-11-27T05:04:34.113Z,98.31
2022-11-27T05:05:34.065Z,97.44
2022-11-27T05:06:34.107Z,98.31
2022-11-27T05:07:34.006Z,97.79
2022-11-27T05:08:33.953Z,97.79
2022-11-27T05:09:33.888Z,97.33
2022-11-27T05:10:33.848Z,97.64
2022-11-27T05:11:33.805Z,97.59
2022-11-27T05:12:33.759Z,97.13
2022-11-27T05:13:33.714Z,96.82
2022-11-27T05:14:33.684Z,97.33
2022-11-27T05:15:33.619Z,97.02
2022-11-27T05:16:33.617Z,97.33
2022-11-27T05:17:33.538Z,97.02
2022-11-27T05:18:33.506Z,97.44
2022-11-27T05:19:33.449Z,97.75
2022-11-27T05:20:33.409Z,97.44
2022-11-27T05:21:33.359Z,96.72
2022-11-27T05:22:33.403Z,97.23
2022-11-27T05:23:33.271Z,97.44
2022-11-27T05:24:33.243Z,97.39
2022-11-27T05:25:33.192Z,96.67
2022-11-27T05:26:33.140Z,97.19
2022-11-27T05:27:33.095Z,96.26
2022-11-27T05:28:33.056Z,97.54
2022-11-27T05:29:33.015Z,97.13
2022-11-27T05:30:32.965Z,97.44
2022-11-27T05:31:32.961Z,97.13
2022-11-27T05:32:32.886Z,97.02
2022-11-27T05:33:32.830Z,96.92
2022-11-27T05:34:32.790Z,96.72
2022-11-27T05:35:32.743Z,97.50
2022-11-27T05:36:32.697Z,97.13
2022-11-27T05:37:32.671Z,96.92
2022-11-27T05:38:32.697Z,97.29
2022-11-27T05:39:32.569Z,96.30
2022-11-27T05:40:32.523Z,97.33
2022-11-27T05:41:32.479Z,97.33
2022-11-27T05:42:32.437Z,97.33
2022-11-27T05:43:32.398Z,97.81
2022-11-27T05:44:32.358Z,97.02
2022-11-27T05:45:32.305Z,97.23
2022-11-27T05:46:32.303Z,97.23
2022-11-27T05:47:32.215Z,97.29
2022-11-27T05:48:32.180Z,97.23
2022-11-27T05:49:32.156Z,97.23
2022-11-27T05:50:32.078Z,97.08
2022-11-27T05:51:32.040Z,97.44
2022-11-27T05:52:32.000Z,97.23
2022-11-27T05:53:31.950Z,97.54
2022-11-27T05:54:31.980Z,96.98
2022-11-27T05:55:31.875Z,96.72
2022-11-27T05:56:31.817Z,96.36
2022-11-27T05:57:31.773Z,97.33
2022-11-27T05:58:31.727Z,97.29
2022-11-27T05:59:31.685Z,97.39
2022-11-27T06:00:31.704Z,97.02
2022-11-27T06:01:32.337Z,96.88
2022-11-27T06:02:31.613Z,96.88
2022-11-27T06:03:31.626Z,97.33
2022-11-27T06:04:31.463Z,97.29
2022-11-27T06:05:31.421Z,97.50
2022-11-27T06:06:31.390Z,96.41
2022-11-27T06:07:31.366Z,97.13
2022-11-27T06:08:31.289Z,97.02
2022-11-27T06:09:31.247Z,97.19
2022-11-27T06:10:31.285Z,97.29
2022-11-27T06:11:31.175Z,96.56
2022-11-27T06:12:31.122Z,96.67
2022-11-27T06:13:31.072Z,96.05
2022-11-27T06:14:31.023Z,96.15
2022-11-27T06:15:30.980Z,96.47
2022-11-27T06:16:31.012Z,96.47
2022-11-27T06:17:30.891Z,96.15
2022-11-27T06:18:31.291Z,97.08
2022-11-27T06:19:30.806Z,96.98
2022-11-27T06:20:30.767Z,95.74
2022-11-27T06:21:30.716Z,96.56
2022-11-27T06:22:30.674Z,95.95
2022-11-27T06:23:30.631Z,96.67
2022-11-27T06:24:30.608Z,96.98
2022-11-27T06:25:30.542Z,96.77
2022-11-27T06:26:30.573Z,96.15
2022-11-27T06:27:30.456Z,96.05
2022-11-27T06:28:30.411Z,95.95
2022-11-27T06:29:30.383Z,96.56
2022-11-27T06:30:30.333Z,96.36
2022-11-27T06:31:30.300Z,96.67
2022-11-27T06:32:30.229Z,96.15
2022-11-27T06:33:30.211Z,96.52
2022-11-27T06:34:30.142Z,96.47
2022-11-27T06:35:30.109Z,96.26
2022-11-27T06:36:30.055Z,96.21
2022-11-27T06:37:30.017Z,96.67
2022-11-27T06:38:29.967Z,96.05
2022-11-27T06:39:29.939Z,96.47
2022-11-27T06:40:29.879Z,96.05
2022-11-27T06:41:29.842Z,96.56
2022-11-27T06:42:29.867Z,96.01
2022-11-27T06:43:29.752Z,96.36
2022-11-27T06:44:29.702Z,96.47
2022-11-27T06:45:29.703Z,96.56
2022-11-27T06:46:29.627Z,95.90
2022-11-27T06:47:29.575Z,95.95
2022-11-27T06:48:29.531Z,96.36
2022-11-27T06:49:29.490Z,96.26
2022-11-27T06:50:29.441Z,96.56
2022-11-27T06:51:29.413Z,96.21
2022-11-27T06:52:29.353Z,96.31
2022-11-27T06:53:29.326Z,96.26
2022-11-27T06:54:29.266Z,96.26
2022-11-27T06:55:29.224Z,96.52
2022-11-27T06:56:29.178Z,96.42
2022-11-27T06:57:29.154Z,95.90
2022-11-27T06:58:31.262Z,96.36
2022-11-27T06:59:29.051Z,95.90
2022-11-27T07:00:29.038Z,96.21
2022-11-27T07:01:29.036Z,96.11
2022-11-27T07:02:28.980Z,96.52
2022-11-27T07:03:28.885Z,96.31
2022-11-27T07:04:28.824Z,96.62
2022-11-27T07:05:28.789Z,96.52
2022-11-27T07:06:28.739Z,96.52
2022-11-27T07:07:28.768Z,96.11
2022-11-27T07:08:28.668Z,96.31
2022-11-27T07:09:28.608Z,96.21
2022-11-27T07:10:28.666Z,96.62
2022-11-27T07:11:28.514Z,96.01
2022-11-27T07:12:28.490Z,96.01
2022-11-27T07:13:28.433Z,96.17
2022-11-27T07:14:28.461Z,96.27
2022-11-27T07:15:28.346Z,95.59
2022-11-27T07:16:28.359Z,95.86
2022-11-27T07:17:28.259Z,95.55
2022-11-27T07:18:28.221Z,96.58
2022-11-27T07:19:28.170Z,96.27
2022-11-27T07:20:28.202Z,95.96
2022-11-27T07:21:28.079Z,95.96
2022-11-27T07:22:36.793Z,96.79
2022-11-27T07:23:28.010Z,95.96
2022-11-27T07:24:27.952Z,96.06
2022-11-27T07:25:27.906Z,95.96
2022-11-27T07:26:27.860Z,95.96
2022-11-27T07:27:27.816Z,95.81
2022-11-27T07:28:27.782Z,95.61
2022-11-27T07:29:27.729Z,96.06
2022-11-27T07:30:27.773Z,95.50
2022-11-27T07:31:27.741Z,95.96
2022-11-27T07:32:27.596Z,95.96
2022-11-27T07:33:27.561Z,95.61
2022-11-27T07:34:27.526Z,95.86
2022-11-27T07:35:27.468Z,96.12
2022-11-27T07:36:27.424Z,95.92
2022-11-27T07:37:27.390Z,95.96
2022-11-27T07:38:27.336Z,95.20
2022-11-27T07:39:53.995Z,95.50
2022-11-27T07:40:27.338Z,95.92
2022-11-27T07:41:33.542Z,95.76
2022-11-27T07:42:42.423Z,95.50
2022-11-27T07:43:27.116Z,95.50
2022-11-27T07:44:27.082Z,95.61
2022-11-27T07:45:27.052Z,95.09
2022-11-27T07:46:27.065Z,95.30
2022-11-27T07:47:26.939Z,95.20
2022-11-27T07:48:26.907Z,95.40
2022-11-27T07:49:26.860Z,95.40
2022-11-27T07:50:26.875Z,95.30
2022-11-27T07:51:26.770Z,95.20
2022-11-27T07:52:26.747Z,94.32
2022-11-27T07:53:26.681Z,94.95
2022-11-27T07:54:26.635Z,94.74
2022-11-27T07:55:26.622Z,94.74
2022-11-27T07:56:26.558Z,94.32
2022-11-27T07:57:26.513Z,94.84
2022-11-27T07:58:26.461Z,94.64
2022-11-27T07:59:26.431Z,94.70
2022-11-27T08:00:26.832Z,94.12
2022-11-27T08:01:26.406Z,93.98
2022-11-27T08:02:26.373Z,93.35
2022-11-27T08:03:26.253Z,93.35
2022-11-27T08:04:26.285Z,93.25
2022-11-27T08:05:26.177Z,93.25
2022-11-27T08:06:26.115Z,93.11
2022-11-27T08:07:26.118Z,93.21
2022-11-27T08:08:26.028Z,93.35
2022-11-27T08:09:26.015Z,93.01
2022-11-27T08:10:25.940Z,92.74
2022-11-27T08:11:25.911Z,92.69
2022-11-27T08:12:25.871Z,92.18
2022-11-27T08:13:25.819Z,91.87
2022-11-27T08:14:25.768Z,92.08
2022-11-27T08:15:25.732Z,92.18
2022-11-27T08:16:25.771Z,92.34
2022-11-27T08:17:25.642Z,92.08
2022-11-27T08:18:25.717Z,91.72
2022-11-27T08:19:25.554Z,92.18
2022-11-27T08:20:25.552Z,91.72
2022-11-27T08:21:25.471Z,91.56
2022-11-27T08:22:25.423Z,92.14
2022-11-27T08:23:25.384Z,91.72
2022-11-27T08:24:25.349Z,91.62
2022-11-27T08:25:25.296Z,91.42
2022-11-27T08:26:25.250Z,91.72
2022-11-27T08:27:25.209Z,91.31
2022-11-27T08:28:25.165Z,91.78
2022-11-27T08:29:26.921Z,90.55
2022-11-27T08:30:25.164Z,91.06
2022-11-27T08:31:25.099Z,91.17
2022-11-27T08:32:25.001Z,90.86
2022-11-27T08:33:24.955Z,90.34
2022-11-27T08:34:24.998Z,91.27
2022-11-27T08:35:24.870Z,90.81
2022-11-27T08:36:24.823Z,90.45
2022-11-27T08:37:24.780Z,90.51
2022-11-27T08:38:24.734Z,89.79
2022-11-27T08:39:24.732Z,90.30
2022-11-27T08:40:24.724Z,90.66
2022-11-27T08:41:24.612Z,90.81
2022-11-27T08:42:24.565Z,89.69
2022-11-27T08:43:24.526Z,89.62
2022-11-27T08:44:24.481Z,89.79
2022-11-27T08:45:24.516Z,90.00
2022-11-27T08:46:24.398Z,90.41
2022-11-27T08:47:24.360Z,89.79
2022-11-27T08:48:24.311Z,89.38
2022-11-27T08:49:24.280Z,89.79
2022-11-27T08:50:24.309Z,90.24
2022-11-27T08:51:24.198Z,89.48
2022-11-27T08:52:24.142Z,90.92
2022-11-27T08:53:24.101Z,89.89
2022-11-27T08:54:24.084Z,89.58
2022-11-27T08:55:24.054Z,89.28
2022-11-27T08:56:23.989Z,90.34
2022-11-27T08:57:23.976Z,89.79
2022-11-27T08:58:23.920Z,90.34
2022-11-27T08:59:23.849Z,90.00
2022-11-27T09:00:27.901Z,90.09
2022-11-27T09:01:23.852Z,89.83
2022-11-27T09:02:23.716Z,89.62
2022-11-27T09:03:23.688Z,89.89
2022-11-27T09:04:23.699Z,90.09
2022-11-27T09:05:23.591Z,89.89
2022-11-27T09:06:23.622Z,89.89
2022-11-27T09:07:23.558Z,89.58
2022-11-27T09:08:23.465Z,90.06
2022-11-27T09:09:23.435Z,90.20
2022-11-27T09:10:23.405Z,89.34
2022-11-27T09:11:23.347Z,89.69
2022-11-27T09:12:23.294Z,89.48
2022-11-27T09:13:23.254Z,89.28
2022-11-27T09:14:23.231Z,89.38
2022-11-27T09:15:23.180Z,89.03
2022-11-27T09:16:23.160Z,89.58
2022-11-27T09:17:23.085Z,89.79
2022-11-27T09:18:23.043Z,89.79
2022-11-27T09:19:23.000Z,89.54
2022-11-27T09:20:22.976Z,88.72
2022-11-27T09:21:22.924Z,89.13
2022-11-27T09:22:22.949Z,88.72
2022-11-27T09:23:22.832Z,89.54
2022-11-27T09:24:22.782Z,88.72
2022-11-27T09:25:22.752Z,88.20
2022-11-27T09:26:22.697Z,88.62
2022-11-27T09:27:22.674Z,88.72
2022-11-27T09:28:24.621Z,87.96
2022-11-27T09:29:22.572Z,88.06
2022-11-27T09:30:22.559Z,88.57
2022-11-27T09:31:22.722Z,88.51
2022-11-27T09:32:22.496Z,88.47
2022-11-27T09:33:22.405Z,88.27
2022-11-27T09:34:22.387Z,87.75
2022-11-27T09:35:22.343Z,87.45
2022-11-27T09:36:22.290Z,87.65
2022-11-27T09:37:22.242Z,87.24
2022-11-27T09:38:22.276Z,87.40
2022-11-27T09:39:22.154Z,86.89
2022-11-27T09:40:22.187Z,86.58
2022-11-27T09:41:22.070Z,87.20
2022-11-27T09:42:22.062Z,86.99
2022-11-27T09:43:21.981Z,86.65
2022-11-27T09:44:21.952Z,85.82
2022-11-27T09:45:21.915Z,86.75
2022-11-27T09:46:21.910Z,86.03
2022-11-27T09:47:21.831Z,85.62
2022-11-27T09:48:21.773Z,86.03
2022-11-27T09:49:21.729Z,86.03
2022-11-27T09:50:21.791Z,85.52
2022-11-27T09:51:21.649Z,84.59
2022-11-27T09:52:21.615Z,84.69
2022-11-27T09:53:21.572Z,84.86
2022-11-27T09:54:21.597Z,85.47
2022-11-27T09:55:21.485Z,84.76
2022-11-27T09:56:21.443Z,85.27
2022-11-27T09:57:21.397Z,85.38
2022-11-27T09:58:21.362Z,84.96
2022-11-27T09:59:21.329Z,84.96
2022-11-27T10:00:21.355Z,85.47
2022-11-27T10:01:21.272Z,85.27
2022-11-27T10:02:21.243Z,85.17
2022-11-27T10:03:21.199Z,85.17
2022-11-27T10:04:21.133Z,84.76
2022-11-27T10:05:21.548Z,84.45
2022-11-27T10:06:21.030Z,84.76
2022-11-27T10:07:21.049Z,84.25
2022-11-27T10:08:20.956Z,85.06
2022-11-27T10:09:20.900Z,85.27
2022-11-27T10:10:20.993Z,84.76
2022-11-27T10:11:20.823Z,85.47
2022-11-27T10:12:20.785Z,85.27
2022-11-27T10:13:20.742Z,85.47
2022-11-27T10:14:20.690Z,84.96
2022-11-27T10:15:20.650Z,84.69
2022-11-27T10:16:20.687Z,84.49
2022-11-27T10:17:20.580Z,84.25
2022-11-27T10:18:20.525Z,83.63
2022-11-27T10:19:20.479Z,84.76
2022-11-27T10:20:20.526Z,84.52
2022-11-27T10:21:20.397Z,84.25
2022-11-27T10:22:21.410Z,84.66
2022-11-27T10:23:20.417Z,84.55
2022-11-27T10:24:20.286Z,84.72
2022-11-27T10:25:20.246Z,83.32
2022-11-27T10:26:20.275Z,83.59
2022-11-27T10:27:20.188Z,83.90
2022-11-27T10:28:20.114Z,84.10
2022-11-27T10:29:20.082Z,83.28
2022-11-27T10:30:20.081Z,83.07
2022-11-27T10:31:20.022Z,82.97
2022-11-27T10:32:52.802Z,83.49
2022-11-27T10:33:19.898Z,84.41
2022-11-27T10:34:19.863Z,83.69
2022-11-27T10:35:19.822Z,83.14
2022-11-27T10:36:19.785Z,82.01
2022-11-27T10:37:19.728Z,82.36
2022-11-27T10:38:19.711Z,82.22
2022-11-27T10:39:19.660Z,82.63
2022-11-27T10:40:19.715Z,82.53
2022-11-27T10:41:48.869Z,82.63
2022-11-27T10:42:19.607Z,82.63
2022-11-27T10:43:19.485Z,82.42
2022-11-27T10:44:19.458Z,82.73
2022-11-27T10:45:19.399Z,81.60
2022-11-27T10:46:19.401Z,81.20
2022-11-27T10:47:19.318Z,82.63
2022-11-27T10:48:19.288Z,82.22
2022-11-27T10:49:19.234Z,83.14
2022-11-27T10:50:19.286Z,82.73
2022-11-27T10:51:19.177Z,82.63
2022-11-27T10:52:19.762Z,82.63
2022-11-27T10:53:19.069Z,82.63
2022-11-27T10:54:19.036Z,82.53
2022-11-27T10:55:18.994Z,82.83
2022-11-27T10:56:18.968Z,81.91
2022-11-27T10:57:18.912Z,82.32
2022-11-27T10:58:18.942Z,81.60
2022-11-27T10:59:18.823Z,82.77
2022-11-27T11:00:18.802Z,83.14
2022-11-27T11:01:18.800Z,82.87
2022-11-27T11:02:18.757Z,82.53
2022-11-27T11:03:18.662Z,83.39
2022-11-27T11:04:36.935Z,82.87
2022-11-27T11:06:21.315Z,82.05
2022-11-27T11:07:18.563Z,82.67
2022-11-27T11:08:18.469Z,81.91
2022-11-27T11:09:18.409Z,83.39
2022-11-27T11:10:18.441Z,82.87
2022-11-27T11:11:18.327Z,83.39
2022-11-27T11:12:18.280Z,82.22
2022-11-27T11:13:18.263Z,82.67
2022-11-27T11:14:18.289Z,83.39
2022-11-27T11:15:18.152Z,82.67
2022-11-27T11:16:23.328Z,82.63
2022-11-27T11:17:18.349Z,83.25
2022-11-27T11:18:18.029Z,82.73
2022-11-27T11:19:18.814Z,82.32
2022-11-27T11:20:18.002Z,82.77
2022-11-27T11:21:17.904Z,82.15
2022-11-27T11:22:17.866Z,83.39
2022-11-27T11:23:17.823Z,82.53
2022-11-27T11:24:17.783Z,83.14
2022-11-27T11:25:17.753Z,82.83
2022-11-27T11:26:17.700Z,83.14
2022-11-27T11:27:17.665Z,83.25
2022-11-27T11:28:17.625Z,83.14
2022-11-27T11:29:17.586Z,82.73
2022-11-27T11:30:17.676Z,83.14
2022-11-27T11:31:17.564Z,83.55
2022-11-27T11:32:17.551Z,82.22
2022-11-27T11:33:17.416Z,83.04
2022-11-27T11:34:17.367Z,83.14
2022-11-27T11:35:17.347Z,83.04
2022-11-27T11:36:17.285Z,83.25
2022-11-27T11:37:17.240Z,83.34
2022-11-27T11:38:17.207Z,82.63
2022-11-27T11:39:17.159Z,83.96
2022-11-27T11:40:17.123Z,83.76
2022-11-27T11:41:17.099Z,84.20
2022-11-27T11:42:17.035Z,84.31
2022-11-27T11:43:16.994Z,84.41
2022-11-27T11:44:16.958Z,85.13
2022-11-27T11:45:16.906Z,86.87
2022-11-27T11:46:17.028Z,85.85
2022-11-27T11:47:16.836Z,86.60
2022-11-27T11:48:16.789Z,86.40
2022-11-27T11:49:16.742Z,85.13
2022-11-27T11:50:16.776Z,86.09
2022-11-27T11:51:16.658Z,85.68
2022-11-27T11:52:16.630Z,86.71
2022-11-27T11:53:16.573Z,85.89
2022-11-27T11:54:16.540Z,86.71
2022-11-27T11:55:16.512Z,85.44
2022-11-27T11:56:16.454Z,85.23
2022-11-27T11:57:16.406Z,85.47
2022-11-27T11:58:16.399Z,84.82
2022-11-27T11:59:17.281Z,84.52
2022-11-27T12:00:16.283Z,84.31
2022-11-27T12:01:26.808Z,83.90
2022-11-27T12:02:16.332Z,82.87
2022-11-27T12:03:16.160Z,83.34
2022-11-27T12:04:16.526Z,82.83
2022-11-27T12:05:16.070Z,83.34
2022-11-27T12:06:16.031Z,83.76
2022-11-27T12:07:16.022Z,82.93
2022-11-27T12:08:15.948Z,83.14
2022-11-27T12:09:16.879Z,81.91
2022-11-27T12:10:15.872Z,81.71
2022-11-27T12:11:15.820Z,82.22
2022-11-27T12:12:15.785Z,82.39
2022-11-27T12:13:15.750Z,82.59
2022-11-27T12:14:15.700Z,81.67
2022-11-27T12:15:15.671Z,81.57
2022-11-27T12:16:15.696Z,81.98
2022-11-27T12:17:15.592Z,81.87
2022-11-27T12:18:15.605Z,82.49
2022-11-27T12:19:15.488Z,80.95
2022-11-27T12:20:15.455Z,80.33
2022-11-27T12:21:15.419Z,80.71
2022-11-27T12:22:15.369Z,81.12
2022-11-27T12:23:15.322Z,80.23
2022-11-27T12:24:15.287Z,80.40
2022-11-27T12:25:15.248Z,80.81
2022-11-27T12:26:15.214Z,80.95
2022-11-27T12:27:15.155Z,80.74
2022-11-27T12:28:15.118Z,80.13
2022-11-27T12:29:15.074Z,80.54
2022-11-27T12:30:15.036Z,80.40
2022-11-27T12:31:15.073Z,79.68
2022-11-27T12:32:14.961Z,79.52
2022-11-27T12:33:14.909Z,79.68
2022-11-27T12:34:14.949Z,80.09
2022-11-27T12:35:14.845Z,79.62
2022-11-27T12:36:14.788Z,78.56
2022-11-27T12:37:14.741Z,79.38
2022-11-27T12:38:14.718Z,79.48
2022-11-27T12:39:14.658Z,78.76
2022-11-27T12:40:14.630Z,78.66
2022-11-27T12:41:14.578Z,78.76
2022-11-27T12:42:19.028Z,78.56
2022-11-27T12:43:14.513Z,79.48
2022-11-27T12:44:14.490Z,78.52
2022-11-27T12:45:14.411Z,78.01
2022-11-27T12:46:14.428Z,77.94
2022-11-27T12:47:14.329Z,78.45
2022-11-27T12:48:14.290Z,78.11
2022-11-27T12:49:14.246Z,78.21
2022-11-27T12:50:14.299Z,77.80
2022-11-27T12:51:14.164Z,78.21
2022-11-27T12:52:14.135Z,78.31
2022-11-27T12:53:14.082Z,77.91